Time;durP1;ratioP1;P1;durP2;ratioP2;P2;SDS_P1;SDS_P2;PMS_P1;PMS_P2;Temp;Humidity;BMP_temperature;BMP_pressure;BME280_temperature;BME280_humidity;BME280_pressure;Samples;Min_cycle;Max_cycle;Signal;HPM_P1;HPM_P2
2021/04/13 00:00:24;;;;;;;4.65;0.73;;;3.70;99.90;;;;;;4992508;28;20027;-78
2021/04/13 00:02:52;;;;;;;5.00;0.90;;;3.70;99.90;;;;;;4976099;28;20114;-78
2021/04/13 00:05:27;;;;;;;0.60;0.60;;;3.70;99.90;;;;;;4988837;28;20035;-78
2021/04/13 00:07:54;;;;;;;3.60;0.85;;;3.60;99.90;;;;;;4992831;28;20042;-78
2021/04/13 00:10:48;;;;;;;1.85;1.17;;;3.60;99.90;;;;;;4990678;28;20053;-78
2021/04/13 00:13:14;;;;;;;6.18;0.82;;;3.60;99.90;;;;;;4993144;28;20050;-77
2021/04/13 00:15:55;;;;;;;2.25;0.70;;;3.50;99.90;;;;;;4993424;28;20034;-78
2021/04/13 00:18:27;;;;;;;4.60;0.98;;;3.50;99.90;;;;;;4993335;28;20559;-78
2021/04/13 00:21:04;;;;;;;3.50;0.88;;;3.50;99.90;;;;;;4972722;28;20035;-77
2021/04/13 00:23:31;;;;;;;4.13;0.60;;;3.50;99.90;;;;;;4988104;28;20509;-77
2021/04/13 00:26:02;;;;;;;3.25;1.00;;;3.50;99.90;;;;;;4993372;28;20028;-78
2021/04/13 00:28:33;;;;;;;4.15;1.00;;;3.50;99.90;;;;;;4993521;28;20122;-78
2021/04/13 00:31:02;;;;;;;3.03;0.70;;;3.50;99.90;;;;;;4995182;28;20027;-79
2021/04/13 00:33:32;;;;;;;2.92;1.02;;;3.40;99.90;;;;;;4996371;28;20030;-78
2021/04/13 00:36:11;;;;;;;5.68;0.93;;;3.40;99.90;;;;;;4998304;28;20474;-78
2021/04/13 00:38:48;;;;;;;7.30;1.35;;;3.40;99.90;;;;;;4997180;28;20050;-79
2021/04/13 00:41:18;;;;;;;9.02;1.58;;;3.40;99.90;;;;;;4986695;28;20122;-78
2021/04/13 00:43:49;;;;;;;7.88;1.10;;;3.40;99.90;;;;;;5008774;28;20034;-77
2021/04/13 00:46:21;;;;;;;6.80;1.10;;;3.40;99.90;;;;;;5016186;28;20069;-77
2021/04/13 00:48:49;;;;;;;3.55;2.47;;;3.40;99.90;;;;;;5016100;28;20032;-78
2021/04/13 00:51:32;;;;;;;3.92;0.70;;;3.40;99.90;;;;;;5017859;28;20041;-79
2021/04/13 00:54:05;;;;;;;3.83;0.90;;;3.30;99.90;;;;;;5019197;28;20023;-79
2021/04/13 00:56:33;;;;;;;3.13;0.90;;;3.30;99.90;;;;;;5017824;28;20062;-78
2021/04/13 00:59:16;;;;;;;4.22;1.40;;;3.20;99.90;;;;;;5018275;28;20018;-78
2021/04/13 01:01:47;;;;;;;4.40;0.90;;;3.20;99.90;;;;;;5002026;28;20034;-78
2021/04/13 01:04:21;;;;;;;3.53;1.35;;;3.20;99.90;;;;;;5000251;28;20073;-78
2021/04/13 01:06:59;;;;;;;2.42;0.80;;;3.10;99.90;;;;;;4998599;28;20033;-77
2021/04/13 01:09:27;;;;;;;4.82;1.65;;;3.10;99.90;;;;;;4996622;28;20410;-78
2021/04/13 01:12:01;;;;;;;4.93;0.98;;;3.10;99.90;;;;;;4996390;28;20069;-77
2021/04/13 01:14:31;;;;;;;4.57;1.23;;;3.00;99.90;;;;;;4995006;28;20109;-79
2021/04/13 01:17:01;;;;;;;4.15;0.98;;;3.10;99.90;;;;;;4995635;28;20077;-79
2021/04/13 01:20:05;;;;;;;8.15;1.10;;;3.10;99.90;;;;;;4995870;28;20041;-78
2021/04/13 01:22:44;;;;;;;5.40;1.52;;;3.10;99.90;;;;;;4996776;28;20026;-78
2021/04/13 01:25:18;;;;;;;3.35;1.00;;;3.10;99.90;;;;;;4997461;28;20132;-79
2021/04/13 01:27:59;;;;;;;8.63;1.25;;;3.10;99.90;;;;;;4995550;28;20031;-78
2021/04/13 01:30:44;;;;;;;2.63;0.90;;;3.10;99.90;;;;;;4996127;28;20045;-78
2021/04/13 01:33:14;;;;;;;7.63;1.27;;;3.10;99.90;;;;;;4994305;28;20050;-77
2021/04/13 01:35:46;;;;;;;6.90;1.98;;;3.10;99.90;;;;;;4995689;28;20046;-78
2021/04/13 01:43:11;;;;;;;6.22;1.30;;;3.00;99.90;;;;;;4996256;28;20035;-78
2021/04/13 01:45:39;;;;;;;10.68;2.88;;;3.10;99.90;;;;;;4996789;28;20053;-78
2021/04/13 01:48:06;;;;;;;6.55;1.30;;;3.00;99.90;;;;;;4995287;28;20033;-79
2021/04/13 01:50:43;;;;;;;8.57;1.05;;;3.00;99.90;;;;;;4996051;28;20038;-78
2021/04/13 01:53:11;;;;;;;7.90;1.70;;;3.00;99.90;;;;;;4995961;28;20038;-78
2021/04/13 01:55:45;;;;;;;10.73;1.33;;;3.00;99.90;;;;;;4994665;28;20050;-77
2021/04/13 01:58:29;;;;;;;7.35;1.17;;;3.00;99.90;;;;;;4994767;28;20402;-77
2021/04/13 02:01:18;;;;;;;4.30;1.02;;;2.90;99.90;;;;;;4994575;28;20026;-78
2021/04/13 02:03:47;;;;;;;2.47;1.08;;;2.90;99.90;;;;;;4996010;28;20593;-77
2021/04/13 02:06:16;;;;;;;5.00;1.23;;;2.90;99.90;;;;;;4996665;28;20062;-78
2021/04/13 02:08:51;;;;;;;7.05;1.70;;;2.90;99.90;;;;;;4996376;28;20474;-78
2021/04/13 02:11:23;;;;;;;9.75;3.05;;;2.90;99.90;;;;;;4990503;28;20031;-77
2021/04/13 02:14:09;;;;;;;5.25;1.10;;;2.90;99.90;;;;;;4994361;28;20014;-78
2021/04/13 02:16:51;;;;;;;7.85;0.80;;;2.90;99.90;;;;;;4995145;28;20042;-78
2021/04/13 02:19:18;;;;;;;9.05;1.05;;;2.80;99.90;;;;;;4994312;28;20012;-77
2021/04/13 02:21:49;;;;;;;4.25;1.02;;;2.90;99.90;;;;;;4994870;28;20142;-77
2021/04/13 02:24:21;;;;;;;3.78;1.20;;;2.80;99.90;;;;;;4995075;28;20034;-77
2021/04/13 02:26:50;;;;;;;4.85;1.45;;;2.90;99.90;;;;;;4995947;28;20026;-76
2021/04/13 02:29:18;;;;;;;8.40;1.10;;;2.80;99.90;;;;;;5009573;28;20030;-78
2021/04/13 02:31:52;;;;;;;2.50;1.13;;;2.80;99.90;;;;;;5015251;28;20034;-78
2021/04/13 02:34:21;;;;;;;7.55;1.25;;;2.80;99.90;;;;;;5016491;28;20097;-77
2021/04/13 02:36:50;;;;;;;5.78;1.20;;;2.70;99.90;;;;;;5017919;28;20038;-78
2021/04/13 02:39:22;;;;;;;5.00;0.80;;;2.70;99.90;;;;;;5016647;28;20023;-78
2021/04/13 02:42:23;;;;;;;5.30;0.88;;;2.70;99.90;;;;;;5017979;28;20018;-78
2021/04/13 02:44:56;;;;;;;2.53;0.90;;;2.70;99.90;;;;;;5001299;28;20041;-78
2021/04/13 02:47:25;;;;;;;7.53;1.25;;;2.60;99.90;;;;;;4998532;28;20035;-78
2021/04/13 02:49:52;;;;;;;8.63;1.45;;;2.60;99.90;;;;;;4997366;28;20030;-77
2021/04/13 02:52:23;;;;;;;2.50;1.00;;;2.60;99.90;;;;;;4994862;28;20046;-78
2021/04/13 02:54:53;;;;;;;5.50;1.73;;;2.60;99.90;;;;;;4992831;28;20018;-77
2021/04/13 02:57:31;;;;;;;7.40;1.50;;;2.60;99.90;;;;;;4995121;28;20033;-77
2021/04/13 03:00:02;;;;;;;;;;;2.60;99.90;;;;;;4994904;28;20019;-77
2021/04/13 03:02:42;;;;;;;6.60;1.40;;;2.60;99.90;;;;;;4994510;28;20000;-77
2021/04/13 03:05:13;;;;;;;5.55;1.25;;;2.60;99.90;;;;;;4994646;28;20026;-77
2021/04/13 03:07:39;;;;;;;5.25;1.63;;;2.60;99.90;;;;;;4992820;28;20034;-77
2021/04/13 03:10:10;;;;;;;4.47;1.13;;;2.60;99.90;;;;;;4993171;28;20176;-77
2021/04/13 03:12:40;;;;;;;3.20;1.70;;;2.50;99.90;;;;;;4990123;28;20029;-77
2021/04/13 03:15:10;;;;;;;4.03;1.63;;;2.50;99.90;;;;;;4994653;28;20101;-77
2021/04/13 03:17:37;;;;;;;3.08;1.48;;;2.50;99.90;;;;;;4994567;28;20030;-77
2021/04/13 03:20:11;;;;;;;9.70;1.70;;;2.50;99.90;;;;;;4994133;28;20390;-78
2021/04/13 03:22:39;;;;;;;5.35;0.88;;;2.50;99.90;;;;;;4993344;28;20065;-77
2021/04/13 03:25:07;;;;;;;2.97;2.03;;;2.40;99.90;;;;;;4980354;28;20023;-78
2021/04/13 03:27:35;;;;;;;4.20;1.00;;;2.50;99.90;;;;;;4992655;28;20406;-78
2021/04/13 03:30:13;;;;;;;6.35;1.40;;;2.40;99.90;;;;;;4993986;28;20030;-78
2021/04/13 03:32:46;;;;;;;3.33;1.35;;;2.40;99.90;;;;;;4982789;28;20565;-77
2021/04/13 03:35:14;;;;;;;5.75;1.60;;;2.40;99.90;;;;;;4993276;28;20027;-78
2021/04/13 03:37:42;;;;;;;8.57;2.15;;;2.40;99.90;;;;;;4992799;28;20233;-78
2021/04/13 03:40:13;;;;;;;2.47;1.40;;;2.40;99.90;;;;;;4992736;28;20117;-78
2021/04/13 03:42:40;;;;;;;6.00;1.23;;;2.40;99.90;;;;;;4992707;28;20300;-78
2021/04/13 03:45:08;;;;;;;5.57;1.00;;;2.40;99.90;;;;;;4994167;28;20021;-78
2021/04/13 03:47:37;;;;;;;3.92;1.60;;;2.40;99.90;;;;;;4992678;28;20018;-78
2021/04/13 03:50:06;;;;;;;8.10;1.65;;;2.40;99.90;;;;;;4994410;28;20493;-78
2021/04/13 03:52:34;;;;;;;9.82;1.55;;;2.40;99.90;;;;;;4994025;28;20019;-78
2021/04/13 03:55:18;;;;;;;0.75;0.73;;;2.40;99.90;;;;;;4993222;28;20068;-78
2021/04/13 03:57:44;;;;;;;3.05;1.15;;;2.50;99.90;;;;;;4980863;28;20026;-79
2021/04/13 04:00:16;;;;;;;3.60;1.40;;;2.50;99.90;;;;;;4994030;28;20481;-79
2021/04/13 04:02:42;;;;;;;9.05;1.30;;;2.50;99.90;;;;;;4992895;28;20506;-80
2021/04/13 04:05:18;;;;;;;2.67;1.45;;;2.50;99.90;;;;;;4996569;28;20061;-79
2021/04/13 04:08:04;;;;;;;3.13;1.50;;;2.40;99.90;;;;;;5002305;28;20030;-79
2021/04/13 04:10:42;;;;;;;8.90;1.65;;;2.40;99.90;;;;;;5002386;28;20026;-79
2021/04/13 04:13:13;;;;;;;3.40;1.08;;;2.40;99.90;;;;;;5020617;28;20026;-80
2021/04/13 04:15:46;;;;;;;4.68;1.88;;;2.40;99.90;;;;;;5021917;28;20026;-80
2021/04/13 04:18:26;;;;;;;2.05;1.23;;;2.40;99.90;;;;;;5023067;28;20019;-80
2021/04/13 04:20:52;;;;;;;4.68;1.17;;;2.40;99.90;;;;;;5012323;28;20022;-80
2021/04/13 04:23:26;;;;;;;6.03;1.42;;;2.40;99.90;;;;;;5023392;28;20041;-80
2021/04/13 04:25:56;;;;;;;5.45;1.00;;;2.40;99.90;;;;;;5023184;28;20006;-79
2021/04/13 04:28:28;;;;;;;1.50;1.10;;;2.30;99.90;;;;;;5010629;28;20109;-79
2021/04/13 04:30:53;;;;;;;5.05;1.35;;;2.40;99.90;;;;;;5002971;28;20030;-79
2021/04/13 04:33:39;;;;;;;2.22;1.25;;;2.40;99.90;;;;;;5003329;28;20034;-80
2021/04/13 04:36:31;;;;;;;8.20;1.17;;;2.40;99.90;;;;;;4992233;28;20113;-79
2021/04/13 04:39:24;;;;;;;5.38;1.15;;;2.30;99.90;;;;;;5001775;28;20034;-78
2021/04/13 04:41:51;;;;;;;2.60;1.42;;;2.40;99.90;;;;;;5000186;28;20113;-79
2021/04/13 04:44:27;;;;;;;10.20;1.80;;;2.40;99.90;;;;;;5000239;28;20030;-79
2021/04/13 04:46:59;;;;;;;6.82;2.00;;;2.40;99.90;;;;;;4997544;28;20281;-79
2021/04/13 04:49:34;;;;;;;7.90;1.67;;;2.40;99.90;;;;;;4999976;28;20022;-79
2021/04/13 04:52:00;;;;;;;6.82;1.17;;;2.40;99.90;;;;;;4999895;28;20177;-79
2021/04/13 04:54:25;;;;;;;7.68;1.15;;;2.40;99.90;;;;;;5000695;28;20058;-79
2021/04/13 04:56:51;;;;;;;4.47;1.08;;;2.40;99.90;;;;;;5000698;28;20027;-79
2021/04/13 04:59:16;;;;;;;4.70;1.63;;;2.40;99.90;;;;;;5000526;28;20026;-78
2021/04/13 05:01:42;;;;;;;3.70;1.50;;;2.40;99.90;;;;;;4997975;28;20037;-79
2021/04/13 05:04:08;;;;;;;4.90;1.33;;;2.40;99.90;;;;;;4998148;28;20486;-78
2021/04/13 05:06:34;;;;;;;14.25;1.77;;;2.40;99.90;;;;;;4999904;28;20026;-79
2021/04/13 05:08:59;;;;;;;4.03;2.08;;;2.30;99.90;;;;;;4998775;28;20394;-78
2021/04/13 05:11:26;;;;;;;10.20;1.65;;;2.40;99.90;;;;;;4993932;28;20478;-79
2021/04/13 05:13:52;;;;;;;6.35;1.42;;;2.40;99.90;;;;;;4999868;28;20076;-80
2021/04/13 05:16:18;;;;;;;5.85;1.88;;;2.40;99.90;;;;;;4997097;28;20040;-79
2021/04/13 05:18:47;;;;;;;4.75;1.42;;;2.50;99.90;;;;;;4995330;28;20508;-79
2021/04/13 05:21:13;;;;;;;6.90;1.80;;;2.50;99.90;;;;;;4996351;28;20018;-79
2021/04/13 05:23:39;;;;;;;6.40;2.50;;;2.50;99.90;;;;;;4995495;28;20038;-79
2021/04/13 05:26:08;;;;;;;7.10;2.25;;;2.60;99.90;;;;;;4994621;28;20398;-79
2021/04/13 05:28:35;;;;;;;7.13;2.03;;;2.60;99.90;;;;;;4995145;28;20038;-79
2021/04/13 05:31:01;;;;;;;10.30;2.10;;;2.70;99.90;;;;;;4996475;28;20113;-79
2021/04/13 05:33:27;;;;;;;9.00;1.83;;;2.80;99.90;;;;;;4996711;28;20030;-79
2021/04/13 05:35:53;;;;;;;8.55;2.08;;;2.90;99.90;;;;;;4995235;28;20026;-79
2021/04/13 05:38:30;;;;;;;8.73;1.83;;;2.90;99.90;;;;;;4997252;28;20382;-79
2021/04/13 05:40:58;;;;;;;3.38;1.40;;;3.00;99.90;;;;;;4997259;28;20035;-80
2021/04/13 05:43:25;;;;;;;4.57;1.77;;;3.10;99.90;;;;;;4995932;28;20038;-80
2021/04/13 05:45:50;;;;;;;5.65;1.75;;;3.10;99.90;;;;;;4996424;28;20034;-78
2021/04/13 05:48:17;;;;;;;4.93;1.85;;;3.20;99.90;;;;;;4995388;28;20033;-79
2021/04/13 05:50:44;;;;;;;9.25;1.27;;;3.30;99.90;;;;;;4996914;28;20506;-75
2021/04/13 05:53:13;;;;;;;8.13;2.10;;;3.30;99.90;;;;;;4998205;28;20034;-78
2021/04/13 05:55:40;;;;;;;5.57;2.47;;;3.50;99.90;;;;;;5006564;28;20034;-78
2021/04/13 05:58:09;;;;;;;9.27;2.05;;;3.60;99.90;;;;;;5015041;28;20090;-78
2021/04/13 06:00:35;;;;;;;10.02;1.70;;;3.70;99.90;;;;;;5016275;28;20015;-78
2021/04/13 06:03:01;;;;;;;8.95;1.85;;;3.80;99.90;;;;;;5015771;28;20054;-79
2021/04/13 06:05:29;;;;;;;7.03;1.70;;;3.90;99.90;;;;;;5004349;28;20478;-79
2021/04/13 06:07:55;;;;;;;8.35;2.20;;;4.00;99.90;;;;;;4997882;28;20035;-78
2021/04/13 06:10:22;;;;;;;4.63;2.50;;;4.20;99.90;;;;;;4994421;28;20033;-78
2021/04/13 06:12:53;;;;;;;14.93;2.38;;;4.30;99.90;;;;;;4996431;28;20435;-77
2021/04/13 06:15:39;;;;;;;8.40;2.25;;;4.40;99.90;;;;;;4996816;28;20030;-78
2021/04/13 06:18:06;;;;;;;10.95;2.30;;;4.60;99.90;;;;;;4995020;28;20022;-79
2021/04/13 06:20:32;;;;;;;6.10;1.77;;;4.70;99.90;;;;;;4995587;28;20023;-79
2021/04/13 06:22:58;;;;;;;12.30;1.83;;;4.70;99.90;;;;;;4994318;28;20041;-79
2021/04/13 06:25:26;;;;;;;17.88;2.47;;;4.80;99.90;;;;;;4997325;28;20026;-79
2021/04/13 06:27:53;;;;;;;;;;;4.90;99.90;;;;;;4995961;28;20040;-77
2021/04/13 06:30:20;;;;;;;5.95;1.88;;;5.10;99.90;;;;;;4995190;28;19909;-78
2021/04/13 06:32:46;;;;;;;4.88;1.60;;;5.30;99.90;;;;;;4979488;28;20080;-79
2021/04/13 06:35:12;;;;;;;1.63;1.23;;;5.50;99.90;;;;;;4994591;28;20608;-77
2021/04/13 06:37:41;;;;;;;6.10;1.90;;;5.70;99.90;;;;;;4991918;28;20184;-81
2021/04/13 06:40:10;;;;;;;3.47;1.25;;;5.90;99.90;;;;;;4994388;28;20026;-78
2021/04/13 06:42:46;;;;;;;8.20;1.67;;;6.10;99.90;;;;;;4994103;28;20057;-80
2021/04/13 06:45:20;;;;;;;13.95;2.13;;;6.20;99.90;;;;;;4977280;28;20026;-78
2021/04/13 06:48:24;;;;;;;5.15;1.27;;;6.20;99.90;;;;;;4993891;28;20026;-78
2021/04/13 06:51:06;;;;;;;8.40;1.20;;;6.30;99.90;;;;;;4973083;28;20122;-79
2021/04/13 06:53:38;;;;;;;6.93;1.48;;;6.40;99.90;;;;;;4987263;28;20482;-78
2021/04/13 06:56:29;;;;;;;5.07;1.20;;;6.50;99.90;;;;;;4995514;28;20105;-78
2021/04/13 06:59:43;;;;;;;11.77;2.10;;;6.50;99.90;;;;;;4991342;28;20042;-78
2021/04/13 07:02:19;;;;;;;6.68;1.35;;;6.50;99.90;;;;;;4963305;28;20042;-78
2021/04/13 07:05:10;;;;;;;6.30;0.95;;;6.80;99.90;;;;;;4994075;28;20050;-78
2021/04/13 07:07:44;;;;;;;14.75;1.80;;;6.90;99.90;;;;;;4978781;28;20034;-79
2021/04/13 07:10:34;;;;;;;7.35;1.55;;;6.90;99.90;;;;;;4981737;28;20053;-79
2021/04/13 07:13:21;;;;;;;8.07;1.50;;;7.00;99.90;;;;;;4986887;28;20042;-79
2021/04/13 07:15:57;;;;;;;9.57;1.30;;;7.10;99.90;;;;;;4993557;28;20364;-78
2021/04/13 07:18:42;;;;;;;8.27;0.90;;;7.10;99.90;;;;;;4992619;28;20042;-79
2021/04/13 07:21:23;;;;;;;10.52;1.20;;;7.20;99.90;;;;;;4993149;28;20501;-78
2021/04/13 07:24:02;;;;;;;10.02;1.52;;;7.10;99.90;;;;;;4991081;28;20052;-79
2021/04/13 07:26:35;;;;;;;6.45;1.40;;;7.30;99.90;;;;;;4990822;28;20045;-77
2021/04/13 07:29:12;;;;;;;8.50;0.80;;;7.30;99.90;;;;;;4992971;28;20504;-79
2021/04/13 07:31:52;;;;;;;3.40;1.05;;;7.30;99.90;;;;;;4993947;28;20201;-79
2021/04/13 07:34:20;;;;;;;5.28;1.23;;;7.40;99.90;;;;;;4989546;28;20126;-79
2021/04/13 07:36:54;;;;;;;4.32;0.82;;;7.30;99.90;;;;;;5007181;28;20038;-79
2021/04/13 07:39:19;;;;;;;3.70;0.82;;;7.20;99.90;;;;;;5014807;28;20065;-77
2021/04/13 07:42:07;;;;;;;4.72;0.82;;;7.30;99.90;;;;;;5014698;28;20065;-79
2021/04/13 07:45:00;;;;;;;12.95;1.52;;;7.30;99.90;;;;;;5019557;28;20035;-78
2021/04/13 07:48:30;;;;;;;6.88;1.05;;;7.40;99.90;;;;;;5015700;28;20042;-79
2021/04/13 07:51:34;;;;;;;2.35;0.85;;;7.60;99.90;;;;;;4945194;28;20046;-78
2021/04/13 07:54:06;;;;;;;6.07;1.33;;;7.70;99.90;;;;;;4994165;28;20076;-77
2021/04/13 07:56:52;;;;;;;4.45;0.50;;;7.90;99.90;;;;;;4992071;28;20046;-77
2021/04/13 07:59:33;;;;;;;3.53;0.95;;;7.80;99.90;;;;;;4989637;28;20025;-78
2021/04/13 08:01:59;;;;;;;8.02;0.60;;;7.80;99.90;;;;;;4992169;28;20034;-79
2021/04/13 08:04:29;;;;;;;5.13;0.95;;;8.00;99.90;;;;;;4993574;28;20050;-80
2021/04/13 08:07:22;;;;;;;3.38;0.77;;;8.10;99.90;;;;;;4990658;28;20053;-80
2021/04/13 08:09:54;;;;;;;2.25;1.60;;;8.20;99.90;;;;;;4979305;28;20074;-79
2021/04/13 08:12:23;;;;;;;2.78;0.75;;;8.20;99.90;;;;;;4982126;28;20038;-78
2021/04/13 08:15:12;;;;;;;5.97;1.15;;;8.40;99.90;;;;;;4990250;28;20510;-77
2021/04/13 08:18:07;;;;;;;5.03;0.73;;;8.50;99.90;;;;;;5004442;28;20147;-77
2021/04/13 08:20:39;;;;;;;4.32;0.63;;;8.60;99.90;;;;;;4990670;28;20043;-76
2021/04/13 08:23:09;;;;;;;4.32;0.60;;;8.20;99.90;;;;;;4984648;28;20062;-81
2021/04/13 08:25:47;;;;;;;2.17;0.68;;;8.20;99.90;;;;;;4991497;28;20023;-84
2021/04/13 08:28:47;;;;;;;4.57;1.10;;;8.30;99.90;;;;;;4997179;28;20030;-78
2021/04/13 08:34:49;;;;;;;3.95;1.00;;;8.30;99.90;;;;;;4996678;28;20053;-76
2021/04/13 08:37:35;;;;;;;10.45;1.10;;;8.30;99.90;;;;;;4954506;28;20045;-75
2021/04/13 08:40:26;;;;;;;9.30;1.23;;;8.40;99.90;;;;;;4989055;28;20026;-78
2021/04/13 08:43:11;;;;;;;4.35;0.77;;;8.60;99.90;;;;;;4993451;28;20026;-77
2021/04/13 08:45:41;;;;;;;6.28;0.73;;;8.90;99.90;;;;;;4989576;28;20491;-76
2021/04/13 08:48:29;;;;;;;2.95;0.40;;;9.20;99.90;;;;;;4984668;28;20565;-77
2021/04/13 08:51:10;;;;;;;9.20;0.57;;;9.20;99.90;;;;;;4990342;28;20039;-77
2021/04/13 08:53:42;;;;;;;7.35;0.65;;;9.10;99.90;;;;;;4997597;28;20034;-77
2021/04/13 08:56:22;;;;;;;4.90;0.80;;;9.30;99.90;;;;;;4994675;28;20058;-78
2021/04/13 08:58:54;;;;;;;2.92;0.68;;;9.40;99.90;;;;;;5007650;28;20089;-76
2021/04/13 09:01:31;;;;;;;5.88;1.08;;;9.30;99.90;;;;;;4990903;28;20417;-77
2021/04/13 09:03:57;;;;;;;2.73;1.10;;;9.40;99.90;;;;;;4991738;28;20130;-77
2021/04/13 09:06:31;;;;;;;11.05;1.00;;;9.50;99.90;;;;;;4995552;28;20026;-77
2021/04/13 09:09:07;;;;;;;3.65;0.52;;;9.50;99.90;;;;;;4993920;28;20049;-77
2021/04/13 09:12:07;;;;;;;6.65;0.52;;;9.70;99.90;;;;;;4996403;28;20106;-78
2021/04/13 09:14:41;;;;;;;4.75;0.82;;;10.10;99.90;;;;;;4996634;28;20042;-77
2021/04/13 09:17:06;;;;;;;1.83;0.50;;;10.20;99.90;;;;;;5003008;28;20352;-80
2021/04/13 09:19:36;;;;;;;7.43;0.88;;;10.40;99.90;;;;;;5016424;28;20052;-77
2021/04/13 09:22:25;;;;;;;11.23;0.90;;;10.50;99.90;;;;;;5031105;28;20286;-78
2021/04/13 09:25:15;;;;;;;5.90;0.80;;;10.50;99.90;;;;;;5027135;28;20038;-77
2021/04/13 09:27:58;;;;;;;2.63;0.68;;;10.00;99.90;;;;;;5012985;28;20061;-78
2021/04/13 09:30:36;;;;;;;3.45;0.73;;;9.50;99.90;;;;;;5010381;28;20022;-79
2021/04/13 09:33:12;;;;;;;3.80;0.50;;;9.10;99.90;;;;;;4998561;28;20479;-77
2021/04/13 09:35:50;;;;;;;4.60;0.60;;;8.90;99.90;;;;;;5001042;28;20041;-76
2021/04/13 09:38:41;;;;;;;2.38;0.70;;;8.60;99.90;;;;;;4996281;28;20058;-77
2021/04/13 09:41:34;;;;;;;6.80;1.60;;;8.50;99.90;;;;;;4995287;28;20097;-76
2021/04/13 09:44:27;;;;;;;2.88;0.50;;;8.90;99.90;;;;;;4993285;28;20030;-77
2021/04/13 09:47:30;;;;;;;1.15;0.40;;;9.40;99.90;;;;;;4990471;28;20062;-78
2021/04/13 09:50:05;;;;;;;4.15;0.50;;;10.00;99.90;;;;;;4993879;28;20038;-78
2021/04/13 09:52:51;;;;;;;6.50;1.50;;;10.60;99.90;;;;;;4992842;28;20478;-77
2021/04/13 09:55:45;;;;;;;2.22;1.00;;;11.00;99.90;;;;;;4995298;28;20034;-77
2021/04/13 09:58:19;;;;;;;3.42;0.73;;;10.80;98.80;;;;;;4996038;28;20548;-77
2021/04/13 10:00:55;;;;;;;4.20;0.70;;;10.60;99.90;;;;;;4996605;28;20027;-77
2021/04/13 10:03:39;;;;;;;2.63;0.50;;;10.50;99.70;;;;;;4993587;28;20053;-77
2021/04/13 10:06:10;;;;;;;0.65;0.40;;;10.20;99.50;;;;;;4996853;28;20037;-77
2021/04/13 10:08:41;;;;;;;8.88;0.88;;;10.10;98.40;;;;;;4996527;28;20034;-77
2021/04/13 10:11:28;;;;;;;5.47;0.80;;;10.20;99.60;;;;;;4993602;28;20027;-78
2021/04/13 10:14:22;;;;;;;6.68;0.68;;;10.20;99.60;;;;;;4994146;28;20029;-75
2021/04/13 10:17:31;;;;;;;1.75;0.63;;;10.00;99.90;;;;;;5008908;28;20478;-82
2021/04/13 10:20:21;;;;;;;2.95;0.82;;;9.70;99.90;;;;;;4993562;28;20022;-76
2021/04/13 10:23:03;;;;;;;1.88;0.57;;;9.70;99.90;;;;;;4994122;28;20034;-81
2021/04/13 10:25:32;;;;;;;5.88;0.60;;;9.90;99.90;;;;;;4990010;28;20446;-77
2021/04/13 10:28:15;;;;;;;7.38;1.13;;;10.40;99.90;;;;;;4991874;28;20038;-79
2021/04/13 10:31:27;;;;;;;1.45;0.50;;;10.70;98.80;;;;;;4994609;28;20089;-75
2021/04/13 10:34:08;;;;;;;3.65;0.70;;;11.10;99.80;;;;;;4997181;28;20026;-77
2021/04/13 10:36:47;;;;;;;2.33;0.50;;;11.40;98.60;;;;;;5009049;28;20088;-77
2021/04/13 10:39:50;;;;;;;4.10;1.30;;;11.00;97.50;;;;;;4994215;28;20026;-74
2021/04/13 10:42:43;;;;;;;2.92;0.88;;;10.80;98.00;;;;;;4992099;28;20384;-74
2021/04/13 10:45:11;;;;;;;1.52;0.55;;;10.20;96.50;;;;;;4993872;28;20299;-75
2021/04/13 10:48:23;;;;;;;3.00;0.77;;;10.20;96.70;;;;;;4996829;28;20026;-77
2021/04/13 10:51:20;;;;;;;8.25;1.08;;;10.70;96.20;;;;;;4989714;28;20509;-75
2021/04/13 10:54:13;;;;;;;3.85;0.50;;;11.20;95.60;;;;;;4991472;28;20521;-75
2021/04/13 10:57:16;;;;;;;5.00;1.85;;;11.50;95.30;;;;;;4990611;28;20403;-74
2021/04/13 11:00:22;;;;;;;9.35;0.50;;;11.40;94.90;;;;;;4989816;28;20073;-75
2021/04/13 11:03:00;;;;;;;3.10;0.73;;;10.60;95.20;;;;;;4983369;28;20371;-75
2021/04/13 11:05:31;;;;;;;2.15;1.00;;;9.80;95.40;;;;;;4981378;28;20039;-78
2021/04/13 11:08:34;;;;;;;1.75;0.60;;;9.60;95.60;;;;;;4989921;28;20101;-76
2021/04/13 11:11:33;;;;;;;2.72;0.50;;;9.60;98.30;;;;;;4998830;28;20117;-75
2021/04/13 11:14:20;;;;;;;6.13;0.50;;;10.10;96.30;;;;;;4993803;28;20030;-76
2021/04/13 11:17:16;;;;;;;2.55;0.57;;;10.70;96.70;;;;;;4987107;28;20113;-77
2021/04/13 11:20:15;;;;;;;2.72;0.70;;;11.10;95.80;;;;;;5000087;28;20030;-75
2021/04/13 11:23:13;;;;;;;1.65;0.63;;;11.00;95.20;;;;;;4996633;28;20441;-76
2021/04/13 11:26:03;;;;;;;2.97;0.65;;;10.50;96.40;;;;;;4996683;28;20073;-77
2021/04/13 11:42:07;;;;;;;2.60;0.80;;;9.90;96.40;;;;;;5131517;27;20411;-74
2021/04/13 11:44:39;;;;;;;3.40;0.57;;;11.40;96.60;;;;;;5129180;28;20432;-72
2021/04/13 11:47:25;;;;;;;4.82;0.80;;;11.50;96.30;;;;;;5128717;28;20466;-73
2021/04/13 11:49:57;;;;;;;5.15;0.85;;;11.00;95.50;;;;;;5119715;28;20034;-75
2021/04/13 11:52:26;;;;;;;7.63;0.88;;;10.60;94.50;;;;;;5129795;27;20510;-73
2021/04/13 11:54:53;;;;;;;2.47;0.85;;;10.20;94.50;;;;;;5127185;27;20466;-74
2021/04/13 11:57:23;;;;;;;1.00;0.73;;;10.50;95.50;;;;;;5130964;28;20546;-72
2021/04/13 12:00:10;;;;;;;2.20;0.50;;;10.50;93.90;;;;;;5128783;27;20016;-73
2021/04/13 12:02:42;;;;;;;2.00;0.90;;;10.20;94.10;;;;;;5125317;28;20027;-73
2021/04/13 12:05:32;;;;;;;7.15;0.63;;;9.90;93.90;;;;;;5127361;28;20080;-74
2021/04/13 12:08:00;;;;;;;5.57;0.98;;;9.80;95.20;;;;;;5133603;28;20027;-75
2021/04/13 12:10:35;;;;;;;2.17;0.90;;;10.00;96.20;;;;;;5147956;27;20051;-74
2021/04/13 12:13:09;;;;;;;2.33;0.43;;;10.10;95.90;;;;;;5151675;27;20015;-75
2021/04/13 12:15:36;;;;;;;4.38;0.40;;;10.40;96.30;;;;;;5142958;28;20016;-75
2021/04/13 12:18:38;;;;;;;1.92;0.60;;;11.00;95.10;;;;;;5146717;28;20035;-74
2021/04/13 12:21:22;;;;;;;12.18;1.30;;;11.50;94.50;;;;;;5148084;28;20099;-75
2021/04/13 12:23:58;;;;;;;1.40;0.50;;;11.20;94.90;;;;;;5144557;28;20023;-74
2021/04/13 12:26:47;;;;;;;3.17;0.65;;;10.60;92.60;;;;;;5134266;28;20024;-75
2021/04/13 12:29:31;;;;;;;6.07;0.70;;;10.00;92.50;;;;;;5133095;27;20027;-74
2021/04/13 12:32:12;;;;;;;1.42;0.85;;;10.00;92.00;;;;;;5125507;28;20027;-72
2021/04/13 12:34:52;;;;;;;3.35;0.98;;;9.80;93.90;;;;;;5109626;28;20051;-74
2021/04/13 12:37:41;;;;;;;4.28;0.70;;;10.00;93.90;;;;;;5110077;28;20023;-73
2021/04/13 12:40:19;;;;;;;3.13;0.93;;;10.70;93.30;;;;;;5107885;28;20043;-72
2021/04/13 12:42:47;;;;;;;3.28;0.95;;;10.80;95.10;;;;;;5097601;28;20032;-72
2021/04/13 12:45:18;;;;;;;2.53;0.60;;;10.90;93.40;;;;;;5095104;28;20531;-72
2021/04/13 12:47:49;;;;;;;5.82;0.88;;;10.80;92.90;;;;;;5091315;28;20028;-74
2021/04/13 12:50:39;;;;;;;3.10;0.80;;;10.60;93.60;;;;;;5109716;28;20030;-74
2021/04/13 12:53:18;;;;;;;2.90;0.70;;;10.20;95.10;;;;;;5085815;28;20064;-75
2021/04/13 12:55:44;;;;;;;5.05;0.90;;;10.20;94.70;;;;;;5087971;28;20020;-74
2021/04/13 12:58:16;;;;;;;1.00;0.80;;;10.00;94.90;;;;;;5090349;28;20460;-74
2021/04/13 13:00:46;;;;;;;11.95;1.58;;;10.00;95.60;;;;;;5089512;28;20085;-74
2021/04/13 13:03:15;;;;;;;1.80;0.80;;;9.90;94.90;;;;;;5099749;28;20471;-72
2021/04/13 13:05:42;;;;;;;1.73;0.77;;;9.90;95.10;;;;;;5094300;28;20020;-72
2021/04/13 13:08:12;;;;;;;1.90;0.90;;;9.70;95.70;;;;;;5112786;28;20047;-72
2021/04/13 13:10:40;;;;;;;9.90;0.90;;;9.60;96.20;;;;;;5095713;28;20027;-73
2021/04/13 13:13:30;;;;;;;2.75;0.68;;;9.60;95.70;;;;;;5096682;28;20024;-72
2021/04/13 13:15:57;;;;;;;2.65;0.80;;;9.60;95.40;;;;;;5103597;28;20020;-75
2021/04/13 13:18:32;;;;;;;2.75;0.77;;;9.70;95.20;;;;;;5110933;28;20395;-73
2021/04/13 13:21:10;;;;;;;6.63;0.70;;;9.70;95.10;;;;;;5102383;28;20028;-74
2021/04/13 13:23:39;;;;;;;3.85;0.82;;;9.80;95.80;;;;;;5093429;28;20054;-73
2021/04/13 13:26:22;;;;;;;5.35;0.98;;;10.00;95.20;;;;;;5087573;28;20505;-73
2021/04/13 13:28:47;;;;;;;1.77;0.70;;;10.30;94.20;;;;;;5093761;28;20028;-73
2021/04/13 13:31:18;;;;;;;3.40;0.93;;;10.30;94.50;;;;;;5092921;28;20047;-73
2021/04/13 13:33:46;;;;;;;1.50;0.80;;;10.20;94.40;;;;;;5090209;28;20028;-75
2021/04/13 13:36:13;;;;;;;;;;;10.20;95.40;;;;;;5093749;28;20020;-73
2021/04/13 13:38:41;;;;;;;3.67;0.80;;;10.30;95.00;;;;;;5088958;28;19912;-74
2021/04/13 13:41:07;;;;;;;6.68;0.98;;;10.60;94.20;;;;;;5090356;28;20048;-74
2021/04/13 13:43:36;;;;;;;3.70;0.85;;;10.80;93.90;;;;;;5091444;28;20483;-75
2021/04/13 13:46:32;;;;;;;5.13;0.98;;;10.80;92.40;;;;;;5110329;28;20020;-77
2021/04/13 13:49:16;;;;;;;7.55;1.20;;;10.90;92.90;;;;;;5094022;28;20020;-73
2021/04/13 13:51:57;;;;;;;6.68;0.70;;;10.80;94.40;;;;;;5089025;28;20044;-73
2021/04/13 13:54:29;;;;;;;4.55;0.85;;;10.70;94.70;;;;;;5109158;28;20024;-75
2021/04/13 13:56:54;;;;;;;3.78;0.82;;;10.40;94.90;;;;;;5092756;28;20020;-75
2021/04/13 13:59:24;;;;;;;2.17;0.70;;;10.30;92.90;;;;;;5094533;28;20371;-73
2021/04/13 14:01:57;;;;;;;2.55;1.13;;;10.20;90.70;;;;;;5109418;28;20490;-77
2021/04/13 14:04:36;;;;;;;0.60;0.60;;;10.10;93.00;;;;;;5090049;28;20027;-75